Laguepe — 9HAI9 — position and weather

sailwx.info

Track history (hours):
 
Tides and Currents Weather Stations Pressure Air Temp Water Temp Dewpoint Dewpoint Depression Visibility Wind Speed Wind Dir Waves Ship Positions

Laguepe

Last reported at 2015-May-22 08:30 UTC. Time now 2015-May-24 13:22 UTC.
Position N 36°43' E 023°31'.

Length 81 m; draft 3.2 m.

Type: Cargo ship. MMSI: 256681000.

Date/timePositionNaut miles runAvg speedWind from/ knotsBaromVisibWave heightAir tempDewpointWater temp
2015-May-22 08:30N 36°43' E 023°31'9 9.0
2015-May-22 07:29N 36°50' E 023°38'9 9.1
2015-May-22 06:32N 36°57' E 023°45'11 9.2
2015-May-22 05:18N 37°06' E 023°54'  
2015-May-14 12:31N 41°55' E 007°42'145 8.4
2015-May-13 19:15N 43°17' E 004°59'6 8.0
2015-May-13 18:33N 43°23' E 004°57'6 6.3
2015-May-13 17:33N 43°23' E 004°49'0 0.1
2015-May-13 16:28N 43°23' E 004°48'0 0.0
2015-May-13 15:28N 43°23' E 004°48'  
Track history (hours):
 
Tides and Currents Weather Stations Pressure Air Temp Water Temp Dewpoint Dewpoint Depression Visibility Wind Speed Wind Dir Waves Ship Positions

Laguepe

Last reported at 2015-May-22 08:30 UTC. Time now 2015-May-24 13:22 UTC.
Position N 36°43' E 023°31'.

Length 81 m; draft 3.2 m.

Type: Cargo ship. MMSI: 256681000.

Date/timePositionNaut miles runAvg speedWind from/ knotsBaromVisibWave heightAir tempDewpointWater temp
2015-May-22 08:30N 36°43' E 023°31'9 9.0
2015-May-22 07:29N 36°50' E 023°38'9 9.1
2015-May-22 06:32N 36°57' E 023°45'11 9.2
2015-May-22 05:18N 37°06' E 023°54'  
2015-May-14 12:31N 41°55' E 007°42'145 8.4
2015-May-13 19:15N 43°17' E 004°59'6 8.0
2015-May-13 18:33N 43°23' E 004°57'6 6.3
2015-May-13 17:33N 43°23' E 004°49'0 0.1
2015-May-13 16:28N 43°23' E 004°48'0 0.0
2015-May-13 15:28N 43°23' E 004°48'  

Dump ship's entire track history